createdAt,value
2022-12-15T00:00:04.688Z,30.63
2022-12-15T00:05:25.162Z,31.65
2022-12-15T00:10:45.235Z,32.38
2022-12-15T00:16:06.149Z,31.95
2022-12-15T00:21:26.466Z,31.10
2022-12-15T00:26:46.751Z,32.15
2022-12-15T00:32:07.058Z,32.38
2022-12-15T00:37:27.314Z,32.78
2022-12-15T00:42:28.939Z,29.90
2022-12-15T00:47:32.863Z,32.25
2022-12-15T00:52:53.294Z,30.13
2022-12-15T00:58:13.547Z,32.58
2022-12-15T01:03:38.009Z,32.60
2022-12-15T01:08:58.602Z,33.40
2022-12-15T01:14:18.915Z,30.30
2022-12-15T01:19:39.189Z,29.25
2022-12-15T01:24:40.939Z,32.17
2022-12-15T01:29:42.910Z,30.52
2022-12-15T01:34:44.636Z,31.38
2022-12-15T01:40:05.097Z,32.42
2022-12-15T01:45:47.707Z,31.80
2022-12-15T01:51:17.947Z,32.38
2022-12-15T01:56:21.672Z,32.88
2022-12-15T02:01:23.495Z,32.95
2022-12-15T02:06:25.982Z,32.88
2022-12-15T02:11:30.492Z,31.60
2022-12-15T02:16:42.800Z,34.63
2022-12-15T02:22:10.612Z,34.13
2022-12-15T02:27:21.828Z,35.22
2022-12-15T02:32:40.863Z,33.38
2022-12-15T02:37:44.979Z,32.80
2022-12-15T02:42:56.615Z,31.52
2022-12-15T02:48:05.152Z,32.28
2022-12-15T02:53:20.104Z,30.67
2022-12-15T02:58:36.791Z,30.60
2022-12-15T03:03:40.022Z,31.33
2022-12-15T03:08:41.713Z,32.58
2022-12-15T03:13:43.318Z,29.90
2022-12-15T03:18:45.081Z,31.55
2022-12-15T03:23:46.951Z,32.45
2022-12-15T03:28:48.628Z,31.67
2022-12-15T03:33:50.352Z,34.22
2022-12-15T03:38:51.984Z,31.35
2022-12-15T03:43:53.678Z,32.47
2022-12-15T03:48:55.574Z,34.13
2022-12-15T03:53:58.880Z,31.58
2022-12-15T03:59:00.645Z,32.20
2022-12-15T04:04:02.640Z,31.70
2022-12-15T04:09:04.337Z,31.17
2022-12-15T04:14:06.021Z,32.17
2022-12-15T04:19:26.240Z,32.78
2022-12-15T04:24:46.617Z,32.03
2022-12-15T04:30:06.799Z,32.53
2022-12-15T04:35:27.701Z,32.28
2022-12-15T04:40:48.463Z,31.20
2022-12-15T04:46:08.697Z,33.05
2022-12-15T04:51:28.905Z,33.55
2022-12-15T04:56:50.864Z,30.60
2022-12-15T05:02:11.217Z,30.48
2022-12-15T05:07:31.998Z,31.88
2022-12-15T05:12:52.113Z,29.58
2022-12-15T05:18:12.791Z,30.13
2022-12-15T05:23:33.209Z,31.35
2022-12-15T05:28:53.699Z,30.25
2022-12-15T05:34:00.957Z,28.50
2022-12-15T05:39:06.600Z,30.63
2022-12-15T05:44:08.548Z,29.23
2022-12-15T05:49:14.946Z,29.13
2022-12-15T05:54:19.497Z,31.57
2022-12-15T05:59:21.284Z,32.30
2022-12-15T06:04:23.174Z,30.10
2022-12-15T06:09:24.861Z,31.05
2022-12-15T06:14:26.518Z,29.58
2022-12-15T06:19:28.151Z,27.95
2022-12-15T06:24:29.856Z,28.15
2022-12-15T06:29:31.641Z,26.30
2022-12-15T06:34:33.337Z,27.20
2022-12-15T06:39:35.006Z,28.00
2022-12-15T06:44:36.665Z,27.30
2022-12-15T06:49:38.359Z,28.88
2022-12-15T06:54:39.973Z,26.80
2022-12-15T06:59:41.699Z,30.15
2022-12-15T07:04:43.978Z,29.73
2022-12-15T07:09:45.698Z,31.27
2022-12-15T07:14:53.030Z,27.88
2022-12-15T07:19:55.165Z,28.45
2022-12-15T07:24:57.053Z,31.60
2022-12-15T07:29:58.765Z,27.80
2022-12-15T07:35:00.642Z,26.05
2022-12-15T07:40:02.588Z,27.20
2022-12-15T07:45:05.419Z,29.92
2022-12-15T07:50:07.858Z,29.23
2022-12-15T07:55:09.909Z,27.73
2022-12-15T08:00:14.886Z,28.77
2022-12-15T08:05:16.607Z,29.50
2022-12-15T08:10:18.325Z,31.08
2022-12-15T08:15:20.054Z,32.33
2022-12-15T08:20:22.502Z,31.70
2022-12-15T08:25:25.148Z,32.72
2022-12-15T08:30:26.939Z,31.40
2022-12-15T08:35:55.127Z,30.80
2022-12-15T08:40:50.659Z,33.50
2022-12-15T08:45:52.560Z,32.67
2022-12-15T08:50:58.824Z,30.45
2022-12-15T08:56:06.221Z,29.75
2022-12-15T09:01:14.875Z,28.95
2022-12-15T09:06:29.425Z,26.27
2022-12-15T09:11:32.114Z,26.17
2022-12-15T09:16:33.996Z,25.83
2022-12-15T09:21:35.797Z,25.05
2022-12-15T09:26:37.513Z,25.08
2022-12-15T09:31:39.992Z,25.75
2022-12-15T09:36:42.419Z,24.83
2022-12-15T09:41:53.769Z,25.30
2022-12-15T09:47:21.356Z,26.13
2022-12-15T09:52:39.076Z,24.88
2022-12-15T09:57:48.271Z,30.50
2022-12-15T10:02:53.036Z,28.02
2022-12-15T10:07:55.124Z,36.50
2022-12-15T10:13:02.813Z,26.88
2022-12-15T10:18:16.165Z,23.75
2022-12-15T10:23:18.542Z,26.02
2022-12-15T10:28:52.878Z,25.83
2022-12-15T10:34:05.607Z,23.10
2022-12-15T10:39:07.424Z,22.85
2022-12-15T10:44:36.368Z,23.77
2022-12-15T10:49:38.215Z,22.05
2022-12-15T10:54:47.272Z,23.30
2022-12-15T10:59:50.834Z,23.90
2022-12-15T11:05:04.733Z,21.90
2022-12-15T11:10:51.244Z,21.65
2022-12-15T11:15:55.024Z,19.75
2022-12-15T11:21:07.737Z,17.73
2022-12-15T11:26:32.200Z,19.05
2022-12-15T11:31:40.521Z,18.80
2022-12-15T11:36:45.702Z,18.58
2022-12-15T11:41:59.142Z,18.63
2022-12-15T11:47:43.241Z,19.10
2022-12-15T11:53:04.464Z,19.20
2022-12-15T11:58:27.348Z,19.13
2022-12-15T12:03:41.055Z,18.60
2022-12-15T12:09:04.720Z,16.20
2022-12-15T12:14:30.776Z,15.70
2022-12-15T12:19:41.420Z,16.60
2022-12-15T12:24:53.087Z,17.25
2022-12-15T12:30:05.358Z,26.55
2022-12-15T12:35:31.022Z,32.78
2022-12-15T12:40:40.691Z,17.13
2022-12-15T12:46:20.556Z,16.75
2022-12-15T12:51:39.673Z,23.67
2022-12-15T12:56:50.446Z,16.42
2022-12-15T13:01:52.648Z,18.58
2022-12-15T13:06:59.668Z,15.07
2022-12-15T13:12:20.659Z,15.95
2022-12-15T13:17:39.052Z,16.17
2022-12-15T13:22:40.915Z,16.50
2022-12-15T13:27:42.692Z,18.00
2022-12-15T13:32:52.380Z,17.13
2022-12-15T13:37:57.014Z,14.77
2022-12-15T13:43:04.835Z,14.52
2022-12-15T13:48:15.676Z,15.70
2022-12-15T13:53:22.235Z,14.90
2022-12-15T13:58:24.665Z,14.20
2022-12-15T14:03:26.943Z,15.20
2022-12-15T14:08:30.525Z,15.50
2022-12-15T14:13:36.985Z,16.65
2022-12-15T14:18:39.319Z,17.58
2022-12-15T14:24:04.103Z,17.42
2022-12-15T14:29:06.350Z,17.73
2022-12-15T14:34:18.776Z,17.08
2022-12-15T14:39:25.518Z,18.63
2022-12-15T14:44:41.142Z,13.95
2022-12-15T14:49:48.567Z,19.55
2022-12-15T14:54:59.120Z,19.02
2022-12-15T15:00:00.783Z,17.95
2022-12-15T15:05:07.841Z,17.80
2022-12-15T15:10:23.163Z,19.52
2022-12-15T15:15:26.654Z,18.33
2022-12-15T15:20:37.787Z,18.95
2022-12-15T15:25:48.472Z,36.55
2022-12-15T15:31:05.778Z,29.85
2022-12-15T15:36:10.885Z,26.60
2022-12-15T15:41:16.803Z,22.73
2022-12-15T15:46:21.100Z,29.70
2022-12-15T15:51:24.823Z,23.02
2022-12-15T15:56:27.484Z,24.33
2022-12-15T16:01:29.205Z,40.15
2022-12-15T16:06:31.019Z,31.63
2022-12-15T16:11:33.910Z,31.50
2022-12-15T16:16:35.567Z,27.38
2022-12-15T16:21:37.734Z,26.55
2022-12-15T16:26:42.885Z,27.63
2022-12-15T16:31:45.822Z,25.98
2022-12-15T16:36:47.831Z,25.60
2022-12-15T16:41:51.671Z,27.80
2022-12-15T16:46:54.052Z,27.13
2022-12-15T16:51:55.760Z,29.98
2022-12-15T16:56:59.914Z,32.53
2022-12-15T17:02:02.342Z,30.30
2022-12-15T17:07:04.125Z,33.40
2022-12-15T17:12:06.035Z,32.53
2022-12-15T17:17:19.220Z,34.55
2022-12-15T17:22:27.515Z,32.00
2022-12-15T17:27:30.144Z,34.03
2022-12-15T17:32:34.317Z,33.90
2022-12-15T17:37:36.061Z,34.40
2022-12-15T17:42:37.806Z,34.28
2022-12-15T17:47:39.454Z,32.03
2022-12-15T17:52:44.257Z,33.67
2022-12-15T17:57:47.189Z,32.08
2022-12-15T18:02:49.212Z,34.15
2022-12-15T18:07:58.760Z,35.00
2022-12-15T18:13:00.767Z,32.85
2022-12-15T18:18:02.470Z,32.03
2022-12-15T18:23:14.021Z,31.00
2022-12-15T18:28:19.977Z,31.67
2022-12-15T18:33:23.373Z,32.20
2022-12-15T18:38:27.254Z,32.78
2022-12-15T18:43:31.459Z,33.55
2022-12-15T18:48:56.232Z,33.42
2022-12-15T18:53:57.961Z,31.55
2022-12-15T18:58:59.725Z,34.97
2022-12-15T19:04:01.314Z,33.88
2022-12-15T19:09:06.247Z,34.22
2022-12-15T19:14:37.467Z,35.53
2022-12-15T19:19:57.914Z,35.85
2022-12-15T19:24:59.640Z,35.20
2022-12-15T19:30:01.598Z,33.22
2022-12-15T19:35:03.389Z,31.27
2022-12-15T19:40:06.321Z,31.17
2022-12-15T19:45:16.890Z,35.58
2022-12-15T19:50:22.428Z,35.72
2022-12-15T19:55:32.645Z,36.20
2022-12-15T20:00:34.410Z,38.05
2022-12-15T20:05:36.945Z,39.15
2022-12-15T20:10:39.060Z,38.22
2022-12-15T20:15:40.957Z,39.15
2022-12-15T20:20:45.672Z,38.33
2022-12-15T20:25:48.216Z,39.75
2022-12-15T20:30:50.590Z,43.83
2022-12-15T20:35:52.757Z,43.78
2022-12-15T20:40:56.296Z,42.92
2022-12-15T20:46:28.606Z,41.28
2022-12-15T20:51:32.889Z,44.95
2022-12-15T20:56:34.669Z,44.28
2022-12-15T21:01:39.001Z,44.05
2022-12-15T21:06:43.898Z,46.30
2022-12-15T21:11:46.974Z,43.80
2022-12-15T21:16:49.632Z,43.00
2022-12-15T21:21:55.600Z,44.17
2022-12-15T21:26:57.956Z,44.00
2022-12-15T21:31:59.731Z,44.63
2022-12-15T21:37:03.460Z,44.05
2022-12-15T21:42:13.784Z,44.85
2022-12-15T21:47:48.400Z,46.45
2022-12-15T21:52:50.284Z,44.13
2022-12-15T21:57:54.499Z,45.15
2022-12-15T22:02:56.342Z,45.15
2022-12-15T22:08:01.633Z,45.50
2022-12-15T22:13:03.687Z,46.80
2022-12-15T22:18:11.854Z,44.95
2022-12-15T22:23:15.694Z,45.13
2022-12-15T22:28:21.680Z,45.30
2022-12-15T22:33:25.462Z,43.92
2022-12-15T22:38:27.278Z,44.00
2022-12-15T22:43:39.523Z,42.17
2022-12-15T22:48:44.622Z,43.28
2022-12-15T22:53:46.764Z,43.85
2022-12-15T22:58:53.091Z,46.33
2022-12-15T23:03:55.712Z,47.40
2022-12-15T23:08:57.372Z,47.78
2022-12-15T23:13:59.055Z,48.05
2022-12-15T23:19:00.863Z,48.50
2022-12-15T23:24:02.573Z,49.05
2022-12-15T23:29:04.239Z,46.45
2022-12-15T23:34:05.907Z,48.10
2022-12-15T23:39:07.617Z,50.38
2022-12-15T23:44:12.259Z,50.63
2022-12-15T23:49:13.873Z,50.28
2022-12-15T23:54:15.790Z,50.22
2022-12-15T23:59:17.647Z,50.08
